sensor_id;sensor_type;location;lat;lon;timestamp;P1;durP1;ratioP1;P2;durP2;ratioP2
53775;SDS011;44276;49.534;6.378;2023-08-17T00:02:18;0.38;;;0.38;;
53775;SDS011;44276;49.534;6.378;2023-08-17T00:04:46;1.48;;;1.23;;
53775;SDS011;44276;49.534;6.378;2023-08-17T00:07:15;0.70;;;0.70;;
53775;SDS011;44276;49.534;6.378;2023-08-17T00:09:43;0.00;;;0.00;;
53775;SDS011;44276;49.534;6.378;2023-08-17T00:12:11;1.25;;;1.15;;
53775;SDS011;44276;49.534;6.378;2023-08-17T00:14:41;0.30;;;0.30;;
53775;SDS011;44276;49.534;6.378;2023-08-17T00:17:09;0.20;;;0.20;;
53775;SDS011;44276;49.534;6.378;2023-08-17T00:19:37;0.00;;;0.00;;
53775;SDS011;44276;49.534;6.378;2023-08-17T00:22:05;0.00;;;0.00;;
53775;SDS011;44276;49.534;6.378;2023-08-17T00:24:33;0.00;;;0.00;;
53775;SDS011;44276;49.534;6.378;2023-08-17T00:27:02;0.10;;;0.10;;
53775;SDS011;44276;49.534;6.378;2023-08-17T00:29:30;0.00;;;0.00;;
53775;SDS011;44276;49.534;6.378;2023-08-17T00:32:03;0.20;;;0.20;;
53775;SDS011;44276;49.534;6.378;2023-08-17T00:34:31;2.17;;;0.80;;
53775;SDS011;44276;49.534;6.378;2023-08-17T00:36:59;0.47;;;0.47;;
53775;SDS011;44276;49.534;6.378;2023-08-17T00:39:27;0.00;;;0.00;;
53775;SDS011;44276;49.534;6.378;2023-08-17T00:41:55;0.38;;;0.38;;
53775;SDS011;44276;49.534;6.378;2023-08-17T00:44:23;0.28;;;0.25;;
53775;SDS011;44276;49.534;6.378;2023-08-17T00:46:53;0.05;;;0.05;;
53775;SDS011;44276;49.534;6.378;2023-08-17T00:49:23;0.65;;;0.65;;
53775;SDS011;44276;49.534;6.378;2023-08-17T00:51:51;0.85;;;0.73;;
53775;SDS011;44276;49.534;6.378;2023-08-17T00:54:24;0.68;;;0.50;;
53775;SDS011;44276;49.534;6.378;2023-08-17T00:56:54;0.10;;;0.10;;
53775;SDS011;44276;49.534;6.378;2023-08-17T00:59:22;0.40;;;0.40;;
53775;SDS011;44276;49.534;6.378;2023-08-17T01:01:51;0.88;;;0.88;;
53775;SDS011;44276;49.534;6.378;2023-08-17T01:04:19;0.82;;;0.80;;
53775;SDS011;44276;49.534;6.378;2023-08-17T01:06:49;0.00;;;0.00;;
53775;SDS011;44276;49.534;6.378;2023-08-17T01:09:17;4.90;;;1.75;;
53775;SDS011;44276;49.534;6.378;2023-08-17T01:11:47;0.10;;;0.10;;
53775;SDS011;44276;49.534;6.378;2023-08-17T01:14:26;0.05;;;0.05;;
53775;SDS011;44276;49.534;6.378;2023-08-17T01:17:06;0.00;;;0.00;;
53775;SDS011;44276;49.534;6.378;2023-08-17T01:19:42;0.10;;;0.10;;
53775;SDS011;44276;49.534;6.378;2023-08-17T01:22:13;0.00;;;0.00;;
53775;SDS011;44276;49.534;6.378;2023-08-17T01:24:46;1.65;;;0.82;;
53775;SDS011;44276;49.534;6.378;2023-08-17T01:27:14;0.57;;;0.57;;
53775;SDS011;44276;49.534;6.378;2023-08-17T01:29:42;0.45;;;0.45;;
53775;SDS011;44276;49.534;6.378;2023-08-17T01:32:12;0.10;;;0.10;;
53775;SDS011;44276;49.534;6.378;2023-08-17T01:34:53;3.72;;;1.08;;
53775;SDS011;44276;49.534;6.378;2023-08-17T01:37:30;1.33;;;0.50;;
53775;SDS011;44276;49.534;6.378;2023-08-17T01:40:03;0.47;;;0.47;;
53775;SDS011;44276;49.534;6.378;2023-08-17T01:42:33;0.98;;;0.90;;
53775;SDS011;44276;49.534;6.378;2023-08-17T01:45:04;0.98;;;0.98;;
53775;SDS011;44276;49.534;6.378;2023-08-17T01:47:33;1.00;;;1.00;;
53775;SDS011;44276;49.534;6.378;2023-08-17T01:50:03;0.75;;;0.43;;
53775;SDS011;44276;49.534;6.378;2023-08-17T01:52:32;2.28;;;0.98;;
53775;SDS011;44276;49.534;6.378;2023-08-17T01:55:02;0.77;;;0.77;;
53775;SDS011;44276;49.534;6.378;2023-08-17T01:57:31;0.17;;;0.17;;
53775;SDS011;44276;49.534;6.378;2023-08-17T02:00:00;0.00;;;0.00;;
53775;SDS011;44276;49.534;6.378;2023-08-17T02:02:28;0.63;;;0.63;;
53775;SDS011;44276;49.534;6.378;2023-08-17T02:04:56;1.77;;;0.77;;
53775;SDS011;44276;49.534;6.378;2023-08-17T02:07:24;0.00;;;0.00;;
53775;SDS011;44276;49.534;6.378;2023-08-17T02:09:53;0.47;;;0.47;;
53775;SDS011;44276;49.534;6.378;2023-08-17T02:12:23;0.00;;;0.00;;
53775;SDS011;44276;49.534;6.378;2023-08-17T02:14:51;0.80;;;0.80;;
53775;SDS011;44276;49.534;6.378;2023-08-17T02:17:19;0.00;;;0.00;;
53775;SDS011;44276;49.534;6.378;2023-08-17T02:19:49;0.10;;;0.10;;
53775;SDS011;44276;49.534;6.378;2023-08-17T02:22:17;0.17;;;0.17;;
53775;SDS011;44276;49.534;6.378;2023-08-17T02:24:46;0.22;;;0.22;;
53775;SDS011;44276;49.534;6.378;2023-08-17T02:27:14;0.20;;;0.20;;
53775;SDS011;44276;49.534;6.378;2023-08-17T02:29:43;0.50;;;0.47;;
53775;SDS011;44276;49.534;6.378;2023-08-17T02:32:11;0.65;;;0.65;;
53775;SDS011;44276;49.534;6.378;2023-08-17T02:34:40;0.70;;;0.70;;
53775;SDS011;44276;49.534;6.378;2023-08-17T02:37:08;0.40;;;0.40;;
53775;SDS011;44276;49.534;6.378;2023-08-17T02:39:36;7.30;;;1.80;;
53775;SDS011;44276;49.534;6.378;2023-08-17T02:42:04;0.28;;;0.28;;
53775;SDS011;44276;49.534;6.378;2023-08-17T02:44:32;1.05;;;1.02;;
53775;SDS011;44276;49.534;6.378;2023-08-17T02:47:02;0.10;;;0.10;;
53775;SDS011;44276;49.534;6.378;2023-08-17T02:49:31;0.22;;;0.22;;
53775;SDS011;44276;49.534;6.378;2023-08-17T02:51:59;0.00;;;0.00;;
53775;SDS011;44276;49.534;6.378;2023-08-17T02:54:28;1.70;;;1.27;;
53775;SDS011;44276;49.534;6.378;2023-08-17T02:56:57;0.08;;;0.08;;
53775;SDS011;44276;49.534;6.378;2023-08-17T02:59:27;0.80;;;0.77;;
53775;SDS011;44276;49.534;6.378;2023-08-17T03:01:55;0.00;;;0.00;;
53775;SDS011;44276;49.534;6.378;2023-08-17T03:04:25;0.03;;;0.03;;
53775;SDS011;44276;49.534;6.378;2023-08-17T03:06:53;0.00;;;0.00;;
53775;SDS011;44276;49.534;6.378;2023-08-17T03:09:21;0.00;;;0.00;;
53775;SDS011;44276;49.534;6.378;2023-08-17T03:11:49;0.00;;;0.00;;
53775;SDS011;44276;49.534;6.378;2023-08-17T03:14:17;0.00;;;0.00;;
53775;SDS011;44276;49.534;6.378;2023-08-17T03:16:45;0.55;;;0.55;;
53775;SDS011;44276;49.534;6.378;2023-08-17T03:19:14;1.95;;;0.73;;
53775;SDS011;44276;49.534;6.378;2023-08-17T03:21:44;0.75;;;0.75;;
53775;SDS011;44276;49.534;6.378;2023-08-17T03:24:12;0.00;;;0.00;;
53775;SDS011;44276;49.534;6.378;2023-08-17T03:26:40;1.42;;;1.33;;
53775;SDS011;44276;49.534;6.378;2023-08-17T03:29:08;0.20;;;0.20;;
53775;SDS011;44276;49.534;6.378;2023-08-17T03:31:36;0.00;;;0.00;;
53775;SDS011;44276;49.534;6.378;2023-08-17T03:34:04;0.00;;;0.00;;
53775;SDS011;44276;49.534;6.378;2023-08-17T03:36:32;0.30;;;0.30;;
53775;SDS011;44276;49.534;6.378;2023-08-17T03:39:02;0.10;;;0.10;;
53775;SDS011;44276;49.534;6.378;2023-08-17T03:41:31;0.00;;;0.00;;
53775;SDS011;44276;49.534;6.378;2023-08-17T03:43:59;1.23;;;1.17;;
53775;SDS011;44276;49.534;6.378;2023-08-17T03:46:27;0.32;;;0.32;;
53775;SDS011;44276;49.534;6.378;2023-08-17T03:48:55;0.17;;;0.17;;
53775;SDS011;44276;49.534;6.378;2023-08-17T03:51:23;0.22;;;0.22;;
53775;SDS011;44276;49.534;6.378;2023-08-17T03:53:51;0.00;;;0.00;;
53775;SDS011;44276;49.534;6.378;2023-08-17T03:56:21;0.10;;;0.10;;
53775;SDS011;44276;49.534;6.378;2023-08-17T03:58:49;0.00;;;0.00;;
53775;SDS011;44276;49.534;6.378;2023-08-17T04:01:18;0.52;;;0.52;;
53775;SDS011;44276;49.534;6.378;2023-08-17T04:03:46;0.00;;;0.00;;
53775;SDS011;44276;49.534;6.378;2023-08-17T04:06:14;0.03;;;0.03;;
53775;SDS011;44276;49.534;6.378;2023-08-17T04:08:42;0.63;;;0.63;;
53775;SDS011;44276;49.534;6.378;2023-08-17T04:11:10;0.57;;;0.57;;
53775;SDS011;44276;49.534;6.378;2023-08-17T04:13:40;0.25;;;0.25;;
53775;SDS011;44276;49.534;6.378;2023-08-17T04:16:08;0.20;;;0.20;;
53775;SDS011;44276;49.534;6.378;2023-08-17T04:18:36;0.17;;;0.17;;
53775;SDS011;44276;49.534;6.378;2023-08-17T04:21:04;0.45;;;0.45;;
53775;SDS011;44276;49.534;6.378;2023-08-17T04:23:32;0.98;;;0.98;;
53775;SDS011;44276;49.534;6.378;2023-08-17T04:26:01;0.00;;;0.00;;
53775;SDS011;44276;49.534;6.378;2023-08-17T04:28:29;0.08;;;0.08;;
53775;SDS011;44276;49.534;6.378;2023-08-17T04:30:58;0.00;;;0.00;;
53775;SDS011;44276;49.534;6.378;2023-08-17T04:33:26;1.65;;;0.63;;
53775;SDS011;44276;49.534;6.378;2023-08-17T04:35:54;0.00;;;0.00;;
53775;SDS011;44276;49.534;6.378;2023-08-17T04:38:25;0.10;;;0.10;;
53775;SDS011;44276;49.534;6.378;2023-08-17T04:40:53;0.38;;;0.22;;
53775;SDS011;44276;49.534;6.378;2023-08-17T04:43:21;0.00;;;0.00;;
53775;SDS011;44276;49.534;6.378;2023-08-17T04:45:49;0.75;;;0.55;;
53775;SDS011;44276;49.534;6.378;2023-08-17T04:48:19;0.10;;;0.10;;
53775;SDS011;44276;49.534;6.378;2023-08-17T04:50:48;0.00;;;0.00;;
53775;SDS011;44276;49.534;6.378;2023-08-17T04:53:16;0.00;;;0.00;;
53775;SDS011;44276;49.534;6.378;2023-08-17T04:55:44;0.15;;;0.15;;
53775;SDS011;44276;49.534;6.378;2023-08-17T04:58:12;0.50;;;0.50;;
53775;SDS011;44276;49.534;6.378;2023-08-17T05:00:41;0.43;;;0.43;;
53775;SDS011;44276;49.534;6.378;2023-08-17T05:03:09;0.10;;;0.10;;
53775;SDS011;44276;49.534;6.378;2023-08-17T05:05:52;0.00;;;0.00;;
53775;SDS011;44276;49.534;6.378;2023-08-17T05:08:20;0.15;;;0.15;;
53775;SDS011;44276;49.534;6.378;2023-08-17T05:10:49;0.93;;;0.88;;
53775;SDS011;44276;49.534;6.378;2023-08-17T05:13:17;0.15;;;0.10;;
53775;SDS011;44276;49.534;6.378;2023-08-17T05:15:45;0.80;;;0.80;;
53775;SDS011;44276;49.534;6.378;2023-08-17T05:18:13;0.08;;;0.08;;
53775;SDS011;44276;49.534;6.378;2023-08-17T05:20:41;1.08;;;1.02;;
53775;SDS011;44276;49.534;6.378;2023-08-17T05:23:11;0.88;;;0.85;;
53775;SDS011;44276;49.534;6.378;2023-08-17T05:25:39;0.00;;;0.00;;
53775;SDS011;44276;49.534;6.378;2023-08-17T05:28:07;0.00;;;0.00;;
53775;SDS011;44276;49.534;6.378;2023-08-17T05:30:35;1.55;;;0.85;;
53775;SDS011;44276;49.534;6.378;2023-08-17T05:33:04;0.00;;;0.00;;
53775;SDS011;44276;49.534;6.378;2023-08-17T05:35:32;0.85;;;0.85;;
53775;SDS011;44276;49.534;6.378;2023-08-17T05:38:00;0.00;;;0.00;;
53775;SDS011;44276;49.534;6.378;2023-08-17T05:40:30;0.38;;;0.38;;
53775;SDS011;44276;49.534;6.378;2023-08-17T05:42:59;0.32;;;0.32;;
53775;SDS011;44276;49.534;6.378;2023-08-17T05:45:28;2.35;;;0.40;;
53775;SDS011;44276;49.534;6.378;2023-08-17T05:47:56;0.00;;;0.00;;
53775;SDS011;44276;49.534;6.378;2023-08-17T05:50:24;0.10;;;0.10;;
53775;SDS011;44276;49.534;6.378;2023-08-17T05:52:52;0.00;;;0.00;;
53775;SDS011;44276;49.534;6.378;2023-08-17T05:55:23;0.20;;;0.20;;
53775;SDS011;44276;49.534;6.378;2023-08-17T05:57:53;0.93;;;0.93;;
53775;SDS011;44276;49.534;6.378;2023-08-17T06:00:21;0.00;;;0.00;;
53775;SDS011;44276;49.534;6.378;2023-08-17T06:02:51;0.10;;;0.10;;
53775;SDS011;44276;49.534;6.378;2023-08-17T06:05:22;0.15;;;0.15;;
53775;SDS011;44276;49.534;6.378;2023-08-17T06:07:53;0.55;;;0.55;;
53775;SDS011;44276;49.534;6.378;2023-08-17T06:10:21;0.15;;;0.15;;
53775;SDS011;44276;49.534;6.378;2023-08-17T06:12:51;0.00;;;0.00;;
53775;SDS011;44276;49.534;6.378;2023-08-17T06:15:21;0.00;;;0.00;;
53775;SDS011;44276;49.534;6.378;2023-08-17T06:17:50;0.00;;;0.00;;
53775;SDS011;44276;49.534;6.378;2023-08-17T06:20:18;0.47;;;0.47;;
53775;SDS011;44276;49.534;6.378;2023-08-17T06:22:47;0.00;;;0.00;;
53775;SDS011;44276;49.534;6.378;2023-08-17T06:25:16;0.00;;;0.00;;
53775;SDS011;44276;49.534;6.378;2023-08-17T06:27:44;0.00;;;0.00;;
53775;SDS011;44276;49.534;6.378;2023-08-17T06:30:14;1.02;;;0.52;;
53775;SDS011;44276;49.534;6.378;2023-08-17T06:32:42;0.45;;;0.45;;
53775;SDS011;44276;49.534;6.378;2023-08-17T06:35:11;0.00;;;0.00;;
53775;SDS011;44276;49.534;6.378;2023-08-17T06:37:39;0.10;;;0.10;;
53775;SDS011;44276;49.534;6.378;2023-08-17T06:40:07;0.65;;;0.55;;
53775;SDS011;44276;49.534;6.378;2023-08-17T06:42:36;0.00;;;0.00;;
53775;SDS011;44276;49.534;6.378;2023-08-17T06:45:05;0.10;;;0.10;;
53775;SDS011;44276;49.534;6.378;2023-08-17T06:47:36;0.10;;;0.10;;
53775;SDS011;44276;49.534;6.378;2023-08-17T06:50:04;0.00;;;0.00;;
53775;SDS011;44276;49.534;6.378;2023-08-17T06:52:35;0.15;;;0.13;;
53775;SDS011;44276;49.534;6.378;2023-08-17T06:55:03;0.00;;;0.00;;
53775;SDS011;44276;49.534;6.378;2023-08-17T06:57:32;0.00;;;0.00;;
53775;SDS011;44276;49.534;6.378;2023-08-17T07:00:00;0.10;;;0.10;;
53775;SDS011;44276;49.534;6.378;2023-08-17T07:02:31;0.00;;;0.00;;
53775;SDS011;44276;49.534;6.378;2023-08-17T07:05:20;0.00;;;0.00;;
53775;SDS011;44276;49.534;6.378;2023-08-17T07:07:48;0.00;;;0.00;;
53775;SDS011;44276;49.534;6.378;2023-08-17T07:10:17;3.70;;;0.22;;
53775;SDS011;44276;49.534;6.378;2023-08-17T07:12:45;0.00;;;0.00;;
53775;SDS011;44276;49.534;6.378;2023-08-17T07:15:13;0.00;;;0.00;;
53775;SDS011;44276;49.534;6.378;2023-08-17T07:17:41;0.00;;;0.00;;
53775;SDS011;44276;49.534;6.378;2023-08-17T07:20:10;0.20;;;0.20;;
53775;SDS011;44276;49.534;6.378;2023-08-17T07:22:48;0.00;;;0.00;;
53775;SDS011;44276;49.534;6.378;2023-08-17T07:25:17;0.63;;;0.43;;
53775;SDS011;44276;49.534;6.378;2023-08-17T07:27:45;0.00;;;0.00;;
53775;SDS011;44276;49.534;6.378;2023-08-17T07:30:13;0.10;;;0.10;;
53775;SDS011;44276;49.534;6.378;2023-08-17T07:32:42;0.10;;;0.10;;
53775;SDS011;44276;49.534;6.378;2023-08-17T07:35:10;0.00;;;0.00;;
53775;SDS011;44276;49.534;6.378;2023-08-17T07:37:38;0.00;;;0.00;;
53775;SDS011;44276;49.534;6.378;2023-08-17T07:40:08;0.00;;;0.00;;
53775;SDS011;44276;49.534;6.378;2023-08-17T07:42:37;0.00;;;0.00;;
53775;SDS011;44276;49.534;6.378;2023-08-17T07:45:06;0.98;;;0.75;;
53775;SDS011;44276;49.534;6.378;2023-08-17T07:47:35;0.77;;;0.28;;
53775;SDS011;44276;49.534;6.378;2023-08-17T07:50:03;0.00;;;0.00;;
53775;SDS011;44276;49.534;6.378;2023-08-17T07:52:33;0.00;;;0.00;;
53775;SDS011;44276;49.534;6.378;2023-08-17T07:55:01;0.00;;;0.00;;
53775;SDS011;44276;49.534;6.378;2023-08-17T07:57:31;0.00;;;0.00;;
53775;SDS011;44276;49.534;6.378;2023-08-17T07:59:59;0.00;;;0.00;;
53775;SDS011;44276;49.534;6.378;2023-08-17T08:02:27;1.55;;;0.40;;
53775;SDS011;44276;49.534;6.378;2023-08-17T08:04:56;0.00;;;0.00;;
53775;SDS011;44276;49.534;6.378;2023-08-17T08:07:24;0.00;;;0.00;;
53775;SDS011;44276;49.534;6.378;2023-08-17T08:09:53;0.00;;;0.00;;
53775;SDS011;44276;49.534;6.378;2023-08-17T08:12:21;0.20;;;0.20;;
53775;SDS011;44276;49.534;6.378;2023-08-17T08:14:50;0.00;;;0.00;;
53775;SDS011;44276;49.534;6.378;2023-08-17T08:17:19;1.98;;;1.00;;
53775;SDS011;44276;49.534;6.378;2023-08-17T08:19:47;3.13;;;1.80;;
53775;SDS011;44276;49.534;6.378;2023-08-17T08:22:17;2.25;;;1.67;;
53775;SDS011;44276;49.534;6.378;2023-08-17T08:24:45;3.67;;;2.25;;
53775;SDS011;44276;49.534;6.378;2023-08-17T08:27:13;2.00;;;1.27;;
53775;SDS011;44276;49.534;6.378;2023-08-17T08:29:41;3.30;;;1.35;;
53775;SDS011;44276;49.534;6.378;2023-08-17T08:32:11;1.25;;;1.13;;
53775;SDS011;44276;49.534;6.378;2023-08-17T08:34:39;1.70;;;1.13;;
53775;SDS011;44276;49.534;6.378;2023-08-17T08:37:07;1.88;;;1.02;;
53775;SDS011;44276;49.534;6.378;2023-08-17T08:39:47;1.38;;;0.98;;
53775;SDS011;44276;49.534;6.378;2023-08-17T08:42:17;2.53;;;1.20;;
53775;SDS011;44276;49.534;6.378;2023-08-17T08:44:45;4.50;;;1.83;;
53775;SDS011;44276;49.534;6.378;2023-08-17T08:47:16;1.75;;;1.00;;
53775;SDS011;44276;49.534;6.378;2023-08-17T08:49:48;2.25;;;1.60;;
53775;SDS011;44276;49.534;6.378;2023-08-17T08:52:30;4.03;;;1.55;;
53775;SDS011;44276;49.534;6.378;2023-08-17T08:55:08;1.77;;;1.10;;
53775;SDS011;44276;49.534;6.378;2023-08-17T08:57:40;2.10;;;1.17;;
53775;SDS011;44276;49.534;6.378;2023-08-17T09:00:17;2.00;;;1.20;;
53775;SDS011;44276;49.534;6.378;2023-08-17T09:02:47;3.80;;;1.70;;
53775;SDS011;44276;49.534;6.378;2023-08-17T09:05:16;2.53;;;1.42;;
53775;SDS011;44276;49.534;6.378;2023-08-17T09:07:48;2.22;;;1.50;;
53775;SDS011;44276;49.534;6.378;2023-08-17T09:10:17;1.65;;;1.52;;
53775;SDS011;44276;49.534;6.378;2023-08-17T09:12:45;4.32;;;1.50;;
53775;SDS011;44276;49.534;6.378;2023-08-17T09:15:15;3.47;;;2.25;;
53775;SDS011;44276;49.534;6.378;2023-08-17T09:17:44;2.22;;;1.70;;
53775;SDS011;44276;49.534;6.378;2023-08-17T09:23:12;3.22;;;1.80;;
53775;SDS011;44276;49.534;6.378;2023-08-17T09:25:42;3.13;;;1.23;;
53775;SDS011;44276;49.534;6.378;2023-08-17T09:28:12;3.42;;;1.35;;
53775;SDS011;44276;49.534;6.378;2023-08-17T09:30:54;3.65;;;1.67;;
53775;SDS011;44276;49.534;6.378;2023-08-17T09:33:26;3.92;;;2.55;;
53775;SDS011;44276;49.534;6.378;2023-08-17T09:35:59;3.05;;;1.95;;
53775;SDS011;44276;49.534;6.378;2023-08-17T09:38:28;2.40;;;1.42;;
53775;SDS011;44276;49.534;6.378;2023-08-17T09:40:57;3.15;;;2.33;;
53775;SDS011;44276;49.534;6.378;2023-08-17T09:43:26;2.00;;;1.63;;
53775;SDS011;44276;49.534;6.378;2023-08-17T09:45:57;3.15;;;2.00;;
53775;SDS011;44276;49.534;6.378;2023-08-17T09:48:25;3.53;;;2.53;;
53775;SDS011;44276;49.534;6.378;2023-08-17T09:50:59;3.78;;;2.00;;
53775;SDS011;44276;49.534;6.378;2023-08-17T09:53:34;2.40;;;2.05;;
53775;SDS011;44276;49.534;6.378;2023-08-17T09:56:04;2.72;;;2.00;;
53775;SDS011;44276;49.534;6.378;2023-08-17T09:58:43;3.28;;;1.92;;
53775;SDS011;44276;49.534;6.378;2023-08-17T10:01:14;2.92;;;2.40;;
53775;SDS011;44276;49.534;6.378;2023-08-17T10:03:43;2.17;;;1.98;;
53775;SDS011;44276;49.534;6.378;2023-08-17T10:06:15;3.00;;;2.42;;
53775;SDS011;44276;49.534;6.378;2023-08-17T10:08:54;3.67;;;2.50;;
53775;SDS011;44276;49.534;6.378;2023-08-17T10:11:25;3.63;;;2.55;;
53775;SDS011;44276;49.534;6.378;2023-08-17T10:13:59;3.95;;;2.60;;
53775;SDS011;44276;49.534;6.378;2023-08-17T10:16:39;4.22;;;2.50;;
53775;SDS011;44276;49.534;6.378;2023-08-17T10:19:13;7.50;;;3.03;;
53775;SDS011;44276;49.534;6.378;2023-08-17T10:21:54;3.00;;;2.10;;
53775;SDS011;44276;49.534;6.378;2023-08-17T10:24:33;4.15;;;2.67;;
53775;SDS011;44276;49.534;6.378;2023-08-17T10:27:04;3.03;;;2.72;;
53775;SDS011;44276;49.534;6.378;2023-08-17T10:29:34;11.43;;;3.63;;
53775;SDS011;44276;49.534;6.378;2023-08-17T10:32:05;3.50;;;2.65;;
53775;SDS011;44276;49.534;6.378;2023-08-17T10:34:42;3.78;;;1.75;;
53775;SDS011;44276;49.534;6.378;2023-08-17T10:37:13;3.17;;;2.67;;
53775;SDS011;44276;49.534;6.378;2023-08-17T10:39:44;2.92;;;2.60;;
53775;SDS011;44276;49.534;6.378;2023-08-17T10:42:14;3.22;;;2.42;;
53775;SDS011;44276;49.534;6.378;2023-08-17T10:44:47;4.72;;;2.30;;
53775;SDS011;44276;49.534;6.378;2023-08-17T10:47:19;2.78;;;2.22;;
53775;SDS011;44276;49.534;6.378;2023-08-17T10:49:50;5.68;;;2.83;;
53775;SDS011;44276;49.534;6.378;2023-08-17T10:52:27;3.33;;;2.97;;
53775;SDS011;44276;49.534;6.378;2023-08-17T10:55:00;3.20;;;2.50;;
53775;SDS011;44276;49.534;6.378;2023-08-17T10:57:32;4.55;;;2.55;;
53775;SDS011;44276;49.534;6.378;2023-08-17T11:02:53;4.32;;;2.22;;
53775;SDS011;44276;49.534;6.378;2023-08-17T11:05:35;4.57;;;1.67;;
53775;SDS011;44276;49.534;6.378;2023-08-17T11:08:07;5.72;;;2.33;;
53775;SDS011;44276;49.534;6.378;2023-08-17T11:10:37;2.45;;;1.67;;
53775;SDS011;44276;49.534;6.378;2023-08-17T11:13:05;2.80;;;2.20;;
53775;SDS011;44276;49.534;6.378;2023-08-17T11:15:37;4.05;;;1.83;;
53775;SDS011;44276;49.534;6.378;2023-08-17T11:18:10;2.35;;;1.85;;
53775;SDS011;44276;49.534;6.378;2023-08-17T11:20:40;3.75;;;1.67;;
53775;SDS011;44276;49.534;6.378;2023-08-17T11:23:11;2.92;;;1.48;;
53775;SDS011;44276;49.534;6.378;2023-08-17T11:25:42;3.28;;;1.80;;
53775;SDS011;44276;49.534;6.378;2023-08-17T11:28:10;2.65;;;1.38;;
53775;SDS011;44276;49.534;6.378;2023-08-17T11:30:40;2.47;;;1.85;;
53775;SDS011;44276;49.534;6.378;2023-08-17T11:33:13;3.47;;;1.23;;
53775;SDS011;44276;49.534;6.378;2023-08-17T11:35:41;2.17;;;1.73;;
53775;SDS011;44276;49.534;6.378;2023-08-17T11:38:10;5.78;;;1.75;;
53775;SDS011;44276;49.534;6.378;2023-08-17T11:40:39;2.22;;;1.45;;
53775;SDS011;44276;49.534;6.378;2023-08-17T11:43:07;4.88;;;2.00;;
53775;SDS011;44276;49.534;6.378;2023-08-17T11:45:37;3.47;;;1.98;;
53775;SDS011;44276;49.534;6.378;2023-08-17T11:48:08;2.00;;;1.60;;
53775;SDS011;44276;49.534;6.378;2023-08-17T11:50:37;1.90;;;1.70;;
53775;SDS011;44276;49.534;6.378;2023-08-17T11:53:06;5.03;;;2.35;;
53775;SDS011;44276;49.534;6.378;2023-08-17T11:55:35;3.35;;;1.73;;
53775;SDS011;44276;49.534;6.378;2023-08-17T11:58:04;2.97;;;1.50;;
53775;SDS011;44276;49.534;6.378;2023-08-17T12:00:36;2.35;;;2.10;;
53775;SDS011;44276;49.534;6.378;2023-08-17T12:03:14;2.40;;;1.50;;
53775;SDS011;44276;49.534;6.378;2023-08-17T12:05:44;2.92;;;1.67;;
53775;SDS011;44276;49.534;6.378;2023-08-17T12:08:12;3.95;;;2.05;;
53775;SDS011;44276;49.534;6.378;2023-08-17T12:10:43;2.22;;;1.45;;
53775;SDS011;44276;49.534;6.378;2023-08-17T12:13:13;1.83;;;1.50;;
53775;SDS011;44276;49.534;6.378;2023-08-17T12:15:41;2.10;;;1.65;;
53775;SDS011;44276;49.534;6.378;2023-08-17T12:18:10;2.47;;;1.92;;
53775;SDS011;44276;49.534;6.378;2023-08-17T12:20:38;5.47;;;2.20;;
53775;SDS011;44276;49.534;6.378;2023-08-17T12:23:09;3.17;;;1.70;;
53775;SDS011;44276;49.534;6.378;2023-08-17T12:25:37;3.88;;;2.50;;
53775;SDS011;44276;49.534;6.378;2023-08-17T12:28:07;2.53;;;1.67;;
53775;SDS011;44276;49.534;6.378;2023-08-17T12:30:35;4.18;;;2.17;;
53775;SDS011;44276;49.534;6.378;2023-08-17T12:33:04;11.07;;;2.20;;
53775;SDS011;44276;49.534;6.378;2023-08-17T12:35:32;2.25;;;1.85;;
53775;SDS011;44276;49.534;6.378;2023-08-17T12:38:00;5.75;;;2.10;;
53775;SDS011;44276;49.534;6.378;2023-08-17T12:40:29;3.80;;;2.25;;
53775;SDS011;44276;49.534;6.378;2023-08-17T12:42:57;1.83;;;1.52;;
53775;SDS011;44276;49.534;6.378;2023-08-17T12:45:26;3.03;;;2.13;;
53775;SDS011;44276;49.534;6.378;2023-08-17T12:47:56;2.20;;;2.00;;
53775;SDS011;44276;49.534;6.378;2023-08-17T12:50:24;2.33;;;1.70;;
53775;SDS011;44276;49.534;6.378;2023-08-17T12:52:52;6.97;;;2.15;;
53775;SDS011;44276;49.534;6.378;2023-08-17T12:55:20;3.22;;;1.67;;
53775;SDS011;44276;49.534;6.378;2023-08-17T12:57:48;3.90;;;1.40;;
53775;SDS011;44276;49.534;6.378;2023-08-17T13:00:17;1.50;;;1.40;;
53775;SDS011;44276;49.534;6.378;2023-08-17T13:02:46;2.75;;;1.60;;
53775;SDS011;44276;49.534;6.378;2023-08-17T13:05:17;2.95;;;1.70;;
53775;SDS011;44276;49.534;6.378;2023-08-17T13:07:45;3.03;;;1.83;;
53775;SDS011;44276;49.534;6.378;2023-08-17T13:10:13;8.27;;;2.22;;
53775;SDS011;44276;49.534;6.378;2023-08-17T13:12:42;3.00;;;1.20;;
53775;SDS011;44276;49.534;6.378;2023-08-17T13:15:10;2.13;;;1.33;;
53775;SDS011;44276;49.534;6.378;2023-08-17T13:17:39;2.67;;;1.10;;
53775;SDS011;44276;49.534;6.378;2023-08-17T13:20:09;2.25;;;1.15;;
53775;SDS011;44276;49.534;6.378;2023-08-17T13:22:38;2.63;;;1.55;;
53775;SDS011;44276;49.534;6.378;2023-08-17T13:25:06;2.28;;;1.20;;
53775;SDS011;44276;49.534;6.378;2023-08-17T13:27:35;3.15;;;1.38;;
53775;SDS011;44276;49.534;6.378;2023-08-17T13:30:03;2.25;;;1.52;;
53775;SDS011;44276;49.534;6.378;2023-08-17T13:32:33;2.00;;;1.60;;
53775;SDS011;44276;49.534;6.378;2023-08-17T13:35:01;3.25;;;1.50;;
53775;SDS011;44276;49.534;6.378;2023-08-17T13:37:32;1.85;;;1.70;;
53775;SDS011;44276;49.534;6.378;2023-08-17T13:40:00;3.55;;;1.25;;
53775;SDS011;44276;49.534;6.378;2023-08-17T13:42:29;2.13;;;1.10;;
53775;SDS011;44276;49.534;6.378;2023-08-17T13:44:57;5.40;;;1.55;;
53775;SDS011;44276;49.534;6.378;2023-08-17T13:47:25;2.42;;;1.15;;
53775;SDS011;44276;49.534;6.378;2023-08-17T13:49:53;2.25;;;1.75;;
53775;SDS011;44276;49.534;6.378;2023-08-17T13:52:24;1.80;;;1.40;;
53775;SDS011;44276;49.534;6.378;2023-08-17T13:54:54;1.63;;;1.52;;
53775;SDS011;44276;49.534;6.378;2023-08-17T13:57:23;4.18;;;1.75;;
53775;SDS011;44276;49.534;6.378;2023-08-17T13:59:51;2.22;;;1.35;;
53775;SDS011;44276;49.534;6.378;2023-08-17T14:02:19;2.38;;;1.60;;
53775;SDS011;44276;49.534;6.378;2023-08-17T14:04:48;1.90;;;1.58;;
53775;SDS011;44276;49.534;6.378;2023-08-17T14:07:16;2.17;;;1.42;;
53775;SDS011;44276;49.534;6.378;2023-08-17T14:09:44;1.63;;;1.40;;
53775;SDS011;44276;49.534;6.378;2023-08-17T14:12:33;3.13;;;1.58;;
53775;SDS011;44276;49.534;6.378;2023-08-17T14:15:02;4.38;;;1.67;;
53775;SDS011;44276;49.534;6.378;2023-08-17T14:17:31;2.45;;;1.83;;
53775;SDS011;44276;49.534;6.378;2023-08-17T14:19:59;2.63;;;1.23;;
53775;SDS011;44276;49.534;6.378;2023-08-17T14:22:27;1.48;;;1.38;;
53775;SDS011;44276;49.534;6.378;2023-08-17T14:24:55;3.13;;;1.65;;
53775;SDS011;44276;49.534;6.378;2023-08-17T14:27:24;1.45;;;1.35;;
53775;SDS011;44276;49.534;6.378;2023-08-17T14:29:53;4.07;;;2.05;;
53775;SDS011;44276;49.534;6.378;2023-08-17T14:32:22;3.83;;;1.80;;
53775;SDS011;44276;49.534;6.378;2023-08-17T14:34:50;2.40;;;1.65;;
53775;SDS011;44276;49.534;6.378;2023-08-17T14:37:18;2.03;;;1.50;;
53775;SDS011;44276;49.534;6.378;2023-08-17T14:39:50;2.50;;;1.52;;
53775;SDS011;44276;49.534;6.378;2023-08-17T14:42:18;1.88;;;1.27;;
53775;SDS011;44276;49.534;6.378;2023-08-17T14:44:46;1.90;;;1.52;;
53775;SDS011;44276;49.534;6.378;2023-08-17T14:47:16;2.05;;;1.42;;
53775;SDS011;44276;49.534;6.378;2023-08-17T14:49:46;4.35;;;2.08;;
53775;SDS011;44276;49.534;6.378;2023-08-17T14:52:15;2.13;;;1.30;;
53775;SDS011;44276;49.534;6.378;2023-08-17T14:54:43;2.78;;;1.77;;
53775;SDS011;44276;49.534;6.378;2023-08-17T14:57:11;1.88;;;1.70;;
53775;SDS011;44276;49.534;6.378;2023-08-17T14:59:39;1.58;;;1.38;;
53775;SDS011;44276;49.534;6.378;2023-08-17T15:02:07;1.88;;;1.15;;
53775;SDS011;44276;49.534;6.378;2023-08-17T15:04:38;1.88;;;1.25;;
53775;SDS011;44276;49.534;6.378;2023-08-17T15:07:06;7.28;;;1.65;;
53775;SDS011;44276;49.534;6.378;2023-08-17T15:09:37;1.55;;;1.13;;